Time;durP1;ratioP1;P1;durP2;ratioP2;P2;SDS_P1;SDS_P2;PMS_P1;PMS_P2;Temp;Humidity;BMP_temperature;BMP_pressure;BME280_temperature;BME280_humidity;BME280_pressure;Samples;Min_cycle;Max_cycle;Signal;HPM_P1;HPM_P2
2022/11/09 00:00:18;;;;;;;8.98;2.25;;;12.00;99.90;;;;;;6161487;23;20047;-82
2022/11/09 00:02:44;;;;;;;7.75;2.13;;;12.00;99.90;;;;;;6211277;23;20026;-81
2022/11/09 00:05:10;;;;;;;4.40;1.73;;;12.00;99.90;;;;;;6185063;23;20480;-81
2022/11/09 00:07:36;;;;;;;8.40;2.25;;;12.00;99.90;;;;;;6185377;23;20013;-81
2022/11/09 00:10:01;;;;;;;6.75;2.75;;;12.20;99.90;;;;;;6160629;23;20802;-82
2022/11/09 00:12:27;;;;;;;5.75;1.95;;;12.00;99.90;;;;;;6185309;23;20434;-82
2022/11/09 00:14:52;;;;;;;4.63;1.80;;;12.30;99.90;;;;;;6212383;23;20336;-81
2022/11/09 00:17:18;;;;;;;6.57;2.45;;;12.10;99.90;;;;;;6184921;23;20015;-81
2022/11/09 00:19:44;;;;;;;4.38;1.67;;;12.10;99.90;;;;;;6211830;23;20059;-82
2022/11/09 00:22:09;;;;;;;6.88;1.58;;;12.10;99.90;;;;;;6160402;23;20027;-82
2022/11/09 00:24:35;;;;;;;7.43;2.47;;;12.00;99.90;;;;;;6184454;23;20444;-82
2022/11/09 00:27:00;;;;;;;5.03;1.40;;;12.00;99.90;;;;;;6185597;23;20084;-81
2022/11/09 00:29:27;;;;;;;5.25;1.80;;;12.00;99.90;;;;;;6211983;23;20114;-82
2022/11/09 00:31:52;;;;;;;4.80;1.48;;;12.00;99.90;;;;;;6210673;23;20472;-82
2022/11/09 00:34:18;;;;;;;4.85;1.50;;;12.00;99.90;;;;;;6183428;23;20023;-81
2022/11/09 00:36:44;;;;;;;6.13;1.85;;;12.00;99.90;;;;;;6184220;23;20016;-81
2022/11/09 00:39:09;;;;;;;6.38;1.60;;;11.90;99.90;;;;;;6211147;23;20031;-81
2022/11/09 00:41:35;;;;;;;5.85;1.77;;;11.80;99.90;;;;;;6183188;23;20017;-81
2022/11/09 00:44:00;;;;;;;5.50;1.83;;;11.80;99.90;;;;;;6183672;23;20095;-82
2022/11/09 00:46:26;;;;;;;6.55;1.83;;;11.70;99.90;;;;;;6209359;23;20027;-81
2022/11/09 00:48:54;;;;;;;4.72;1.70;;;11.70;99.90;;;;;;6183292;23;20040;-82
2022/11/09 00:51:20;;;;;;;5.47;2.00;;;11.70;99.90;;;;;;6183180;23;20012;-81
2022/11/09 00:53:47;;;;;;;9.20;2.00;;;11.60;99.90;;;;;;6183421;23;20009;-82
2022/11/09 00:56:13;;;;;;;9.02;2.10;;;11.60;99.90;;;;;;6210032;23;20022;-82
2022/11/09 00:58:39;;;;;;;10.10;2.15;;;11.60;99.90;;;;;;6183960;23;20430;-82
2022/11/09 01:01:12;;;;;;;7.00;1.92;;;11.60;99.90;;;;;;6182414;23;20495;-82
2022/11/09 01:03:38;;;;;;;5.82;1.98;;;11.70;99.90;;;;;;6157712;23;20096;-81
2022/11/09 01:06:05;;;;;;;7.13;2.45;;;11.70;99.90;;;;;;6183147;23;20519;-82
2022/11/09 01:08:32;;;;;;;5.70;2.20;;;11.70;99.90;;;;;;6210032;23;20083;-82
2022/11/09 01:11:04;;;;;;;8.85;2.38;;;11.70;99.90;;;;;;6158751;23;20022;-81
2022/11/09 01:13:29;;;;;;;8.63;2.55;;;11.70;99.90;;;;;;6210066;23;20020;-81
2022/11/09 01:15:55;;;;;;;6.93;2.75;;;11.70;99.90;;;;;;6184913;23;20024;-81
2022/11/09 01:18:21;;;;;;;9.00;2.25;;;11.80;99.90;;;;;;6183445;23;20012;-82
2022/11/09 01:20:48;;;;;;;7.03;2.63;;;11.80;99.90;;;;;;6211475;23;20017;-82
2022/11/09 01:23:16;;;;;;;8.00;2.25;;;11.80;99.90;;;;;;6185690;23;20020;-81
2022/11/09 01:25:42;;;;;;;10.02;2.13;;;11.80;99.90;;;;;;6212470;23;20086;-81
2022/11/09 01:28:09;;;;;;;6.60;1.85;;;11.90;99.90;;;;;;6160636;23;20023;-82
2022/11/09 01:30:37;;;;;;;8.25;2.03;;;11.90;99.90;;;;;;6160685;23;20008;-82
2022/11/09 01:33:05;;;;;;;9.77;2.20;;;11.90;99.90;;;;;;6184756;23;20009;-81
2022/11/09 01:35:35;;;;;;;10.35;2.40;;;11.90;99.90;;;;;;6160855;23;20009;-82
2022/11/09 01:38:02;;;;;;;10.15;2.30;;;11.90;99.90;;;;;;6212342;23;20056;-82
2022/11/09 01:40:29;;;;;;;10.20;2.35;;;11.90;99.90;;;;;;6137548;23;1140701;-82
2022/11/09 01:42:55;;;;;;;8.63;2.30;;;11.90;99.90;;;;;;6187270;23;20053;-82
2022/11/09 01:45:31;;;;;;;6.63;1.98;;;11.90;99.90;;;;;;6186633;23;20016;-81
2022/11/09 01:48:17;;;;;;;7.30;2.15;;;11.90;99.90;;;;;;6186144;23;20449;-82
2022/11/09 01:51:00;;;;;;;7.10;2.25;;;11.90;99.90;;;;;;6213110;23;20016;-81
2022/11/09 01:53:29;;;;;;;11.60;2.30;;;11.90;99.90;;;;;;6211998;23;20542;-82
2022/11/09 01:56:00;;;;;;;9.88;1.98;;;11.90;99.90;;;;;;6213603;23;20008;-81
2022/11/09 01:58:39;;;;;;;9.50;2.20;;;12.00;99.90;;;;;;6186717;23;20012;-82
2022/11/09 02:01:09;;;;;;;6.60;2.08;;;12.00;99.90;;;;;;6187415;23;20004;-82
2022/11/09 02:03:40;;;;;;;6.03;1.83;;;12.00;99.90;;;;;;6213878;23;20016;-81
2022/11/09 02:06:10;;;;;;;11.75;2.50;;;12.00;99.90;;;;;;6186939;23;20088;-80
2022/11/09 02:08:36;;;;;;;9.13;1.98;;;12.00;99.90;;;;;;6186416;23;20047;-81
2022/11/09 02:11:07;;;;;;;9.43;2.00;;;12.00;99.90;;;;;;6212900;23;20016;-81
2022/11/09 02:13:34;;;;;;;8.55;2.28;;;12.00;99.90;;;;;;6161862;23;20014;-82
2022/11/09 02:16:00;;;;;;;10.50;2.08;;;12.00;99.90;;;;;;6212709;23;20013;-82
2022/11/09 02:18:27;;;;;;;7.75;2.20;;;12.00;99.90;;;;;;6213728;23;20050;-82
2022/11/09 02:20:55;;;;;;;7.68;2.22;;;12.00;99.90;;;;;;6185846;23;20485;-81
2022/11/09 02:23:23;;;;;;;8.93;1.98;;;12.00;99.90;;;;;;6185877;23;20020;-81
2022/11/09 02:25:55;;;;;;;8.40;2.10;;;11.90;99.90;;;;;;6185235;23;20023;-80
2022/11/09 02:28:21;;;;;;;9.88;2.30;;;12.00;99.90;;;;;;6212640;23;20013;-81
2022/11/09 02:30:50;;;;;;;5.70;2.30;;;12.10;99.90;;;;;;6186047;23;20040;-81
2022/11/09 02:33:16;;;;;;;10.65;2.60;;;11.90;99.90;;;;;;6213168;23;20008;-82
2022/11/09 02:35:42;;;;;;;11.20;2.33;;;11.80;99.90;;;;;;6185247;23;20012;-81
2022/11/09 02:38:12;;;;;;;9.10;2.75;;;11.80;99.90;;;;;;6212668;23;20062;-82
2022/11/09 02:40:41;;;;;;;8.40;2.30;;;11.80;99.90;;;;;;6212892;23;20389;-82
2022/11/09 02:43:09;;;;;;;10.50;2.30;;;11.80;99.90;;;;;;6161306;23;20300;-81
2022/11/09 02:45:35;;;;;;;10.32;2.22;;;11.80;99.90;;;;;;6185530;23;20483;-81
2022/11/09 02:48:01;;;;;;;9.45;2.58;;;11.70;99.90;;;;;;6212245;23;20012;-82
2022/11/09 02:50:27;;;;;;;6.03;2.00;;;11.70;99.90;;;;;;6186476;23;20016;-82
2022/11/09 02:52:52;;;;;;;9.48;2.00;;;11.80;99.90;;;;;;6213377;23;20325;-81
2022/11/09 02:55:18;;;;;;;8.82;2.22;;;11.70;99.90;;;;;;6213431;23;20035;-82
2022/11/09 02:57:44;;;;;;;8.75;1.95;;;11.70;99.90;;;;;;6212872;23;20421;-81
2022/11/09 03:00:10;;;;;;;10.35;2.25;;;11.80;99.90;;;;;;6212719;23;20019;-81
2022/11/09 03:02:36;;;;;;;10.13;2.17;;;11.70;99.90;;;;;;6213458;23;20017;-82
2022/11/09 03:05:02;;;;;;;9.75;1.98;;;11.80;99.90;;;;;;6212600;23;20013;-82
2022/11/09 03:07:28;;;;;;;4.28;1.65;;;11.80;99.90;;;;;;6186602;23;20043;-81
2022/11/09 03:09:53;;;;;;;8.63;2.20;;;11.80;99.90;;;;;;6213432;23;20508;-81
2022/11/09 03:12:28;;;;;;;6.57;1.95;;;11.70;99.90;;;;;;6185568;23;20425;-82
2022/11/09 03:15:05;;;;;;;7.22;1.92;;;11.70;99.90;;;;;;6212217;23;20019;-81
2022/11/09 03:17:31;;;;;;;10.68;2.08;;;11.70;99.90;;;;;;6213244;23;20020;-81
2022/11/09 03:19:57;;;;;;;9.40;1.70;;;11.70;99.90;;;;;;6186411;23;20049;-82
2022/11/09 03:22:23;;;;;;;9.95;2.28;;;11.70;99.90;;;;;;6185182;23;20345;-82
2022/11/09 03:24:49;;;;;;;8.27;1.75;;;11.70;99.90;;;;;;6185701;23;20023;-82
2022/11/09 03:27:14;;;;;;;8.00;1.85;;;11.70;99.90;;;;;;6185227;23;20102;-81
2022/11/09 03:29:40;;;;;;;8.35;1.90;;;11.90;99.90;;;;;;6160529;23;20023;-82
2022/11/09 03:32:06;;;;;;;7.55;1.92;;;11.70;99.90;;;;;;6211704;23;20048;-81
2022/11/09 03:34:32;;;;;;;4.97;1.52;;;11.70;99.90;;;;;;6186129;23;20152;-81
2022/11/09 03:36:58;;;;;;;9.35;1.83;;;11.70;99.90;;;;;;6186115;23;20603;-82
2022/11/09 03:39:23;;;;;;;10.85;1.75;;;11.70;99.90;;;;;;6186680;23;20024;-82
2022/11/09 03:41:49;;;;;;;6.47;1.30;;;11.70;99.90;;;;;;6213478;23;20016;-80
2022/11/09 03:44:15;;;;;;;14.98;1.75;;;11.70;99.90;;;;;;6212502;23;20074;-82
2022/11/09 03:46:40;;;;;;;8.15;1.60;;;11.70;99.90;;;;;;6186003;23;20017;-80
2022/11/09 03:49:06;;;;;;;4.80;1.50;;;11.70;99.90;;;;;;6212414;23;20051;-81
2022/11/09 03:51:32;;;;;;;10.90;2.03;;;11.70;99.90;;;;;;6185296;23;20092;-82
2022/11/09 03:53:57;;;;;;;8.95;1.90;;;11.60;99.90;;;;;;6186524;23;20496;-82
2022/11/09 03:56:23;;;;;;;11.90;1.70;;;11.70;99.90;;;;;;6185800;23;20016;-82
2022/11/09 03:58:49;;;;;;;10.85;2.10;;;11.70;99.90;;;;;;6185840;23;20087;-82
2022/11/09 04:01:14;;;;;;;10.18;1.80;;;11.70;99.90;;;;;;6185475;23;20055;-81
2022/11/09 04:03:40;;;;;;;9.25;1.60;;;11.60;99.90;;;;;;6184683;23;20012;-81
2022/11/09 04:06:06;;;;;;;12.25;2.10;;;11.60;99.90;;;;;;6185593;23;20016;-82
2022/11/09 04:08:31;;;;;;;7.63;1.55;;;11.60;99.90;;;;;;6184918;23;20444;-81
2022/11/09 04:10:57;;;;;;;10.35;1.60;;;11.60;99.90;;;;;;6211568;23;20008;-81
2022/11/09 04:13:23;;;;;;;12.10;1.85;;;11.60;99.90;;;;;;6212249;23;20069;-81
2022/11/09 04:15:48;;;;;;;10.77;1.98;;;11.50;99.90;;;;;;6185079;23;20507;-82
2022/11/09 04:18:15;;;;;;;6.35;1.80;;;11.50;99.90;;;;;;6186301;23;20040;-80
2022/11/09 04:20:41;;;;;;;5.00;1.65;;;11.50;99.90;;;;;;6212399;23;20012;-82
2022/11/09 04:23:12;;;;;;;12.70;2.10;;;11.50;99.90;;;;;;6212337;23;20135;-81
2022/11/09 04:25:39;;;;;;;12.52;1.88;;;11.50;99.90;;;;;;6212021;23;20290;-82
2022/11/09 04:28:08;;;;;;;8.80;1.70;;;11.50;99.90;;;;;;6212204;23;20008;-81
2022/11/09 04:30:35;;;;;;;8.50;1.77;;;11.50;99.90;;;;;;6184508;23;20047;-81
2022/11/09 04:33:01;;;;;;;12.75;2.22;;;11.50;99.90;;;;;;6185553;23;20048;-81
2022/11/09 04:35:29;;;;;;;8.82;1.80;;;11.50;99.90;;;;;;6185219;23;20017;-81
2022/11/09 04:37:56;;;;;;;12.10;2.38;;;11.40;99.90;;;;;;6160274;23;20083;-82
2022/11/09 04:40:23;;;;;;;10.30;2.30;;;11.50;99.90;;;;;;6210863;23;20044;-81
2022/11/09 04:42:49;;;;;;;11.50;2.20;;;11.40;99.90;;;;;;6211691;23;20705;-82
2022/11/09 04:45:15;;;;;;;9.88;2.60;;;11.40;99.90;;;;;;6212678;23;20017;-82
2022/11/09 04:47:40;;;;;;;8.48;1.90;;;11.50;99.90;;;;;;6185409;23;20028;-82
2022/11/09 04:50:07;;;;;;;9.93;2.00;;;11.50;99.90;;;;;;6212324;23;20019;-82
2022/11/09 04:52:32;;;;;;;11.13;2.47;;;11.50;99.90;;;;;;6213673;23;20395;-82
2022/11/09 04:54:58;;;;;;;5.53;2.15;;;11.50;99.90;;;;;;6186909;23;20465;-81
2022/11/09 04:57:23;;;;;;;8.63;2.15;;;11.50;99.90;;;;;;6186182;23;20025;-81
2022/11/09 04:59:49;;;;;;;11.65;1.92;;;11.50;99.90;;;;;;6186582;23;20467;-81
2022/11/09 05:02:15;;;;;;;9.15;2.15;;;11.60;99.90;;;;;;6213665;23;20017;-81
2022/11/09 05:04:40;;;;;;;7.03;1.80;;;11.60;99.90;;;;;;6214271;23;20015;-81
2022/11/09 05:07:06;;;;;;;9.18;2.28;;;11.60;99.90;;;;;;6214056;23;20013;-82
2022/11/09 05:09:32;;;;;;;10.27;2.13;;;11.70;99.90;;;;;;6187408;23;20019;-81
2022/11/09 05:11:57;;;;;;;8.15;1.80;;;11.70;99.90;;;;;;6161158;23;20414;-81
2022/11/09 05:14:23;;;;;;;9.52;2.60;;;11.70;99.90;;;;;;6214191;23;20092;-81
2022/11/09 05:16:48;;;;;;;10.27;1.83;;;11.70;99.90;;;;;;6187156;23;20047;-82
2022/11/09 05:19:14;;;;;;;7.97;1.80;;;11.80;99.90;;;;;;6213510;23;20376;-81
2022/11/09 05:21:39;;;;;;;10.10;2.35;;;11.80;99.90;;;;;;6161255;23;20472;-82
2022/11/09 05:24:06;;;;;;;7.85;1.92;;;11.90;99.90;;;;;;6186183;23;20013;-81
2022/11/09 05:26:37;;;;;;;7.60;2.00;;;11.90;99.90;;;;;;6212715;23;20015;-81
2022/11/09 05:29:08;;;;;;;6.88;1.95;;;11.90;99.90;;;;;;6213218;23;20024;-81
2022/11/09 05:31:34;;;;;;;6.75;1.80;;;11.90;99.90;;;;;;6185587;23;20115;-81
2022/11/09 05:34:00;;;;;;;8.10;1.92;;;11.90;99.90;;;;;;6186924;23;20398;-82
2022/11/09 05:36:27;;;;;;;11.00;2.05;;;12.00;99.90;;;;;;6161133;23;20008;-81
2022/11/09 05:38:53;;;;;;;9.20;1.50;;;12.00;99.90;;;;;;6213140;23;20013;-81
2022/11/09 05:41:19;;;;;;;8.63;2.05;;;12.00;99.90;;;;;;6157824;23;20013;-81
2022/11/09 05:43:45;;;;;;;8.55;1.70;;;12.00;99.90;;;;;;6181655;23;20099;-81
2022/11/09 05:46:12;;;;;;;6.55;1.50;;;12.00;99.90;;;;;;6182717;23;20021;-81
2022/11/09 05:48:38;;;;;;;10.55;2.67;;;11.90;99.90;;;;;;6181348;23;20056;-82
2022/11/09 05:51:07;;;;;;;7.90;2.15;;;12.00;99.90;;;;;;6181284;23;20013;-80
2022/11/09 05:53:33;;;;;;;9.02;1.73;;;11.90;99.90;;;;;;6179687;23;20056;-81
2022/11/09 05:56:07;;;;;;;7.07;1.60;;;11.80;99.90;;;;;;6180481;23;20009;-82
2022/11/09 05:58:36;;;;;;;8.32;1.85;;;11.80;99.90;;;;;;6181281;23;20017;-81
2022/11/09 06:01:06;;;;;;;10.65;1.98;;;11.80;99.90;;;;;;6182826;23;20021;-82
2022/11/09 06:03:32;;;;;;;6.95;1.58;;;11.70;99.90;;;;;;6182655;23;20024;-81
2022/11/09 06:06:03;;;;;;;11.07;2.08;;;11.70;99.90;;;;;;6181927;23;20013;-82
2022/11/09 06:08:28;;;;;;;11.10;2.33;;;11.70;99.90;;;;;;6181131;23;20012;-81
2022/11/09 06:11:02;;;;;;;14.43;2.05;;;11.70;99.90;;;;;;6181893;23;20075;-81
2022/11/09 06:13:28;;;;;;;10.30;2.03;;;11.70;99.90;;;;;;6180944;23;20013;-81
2022/11/09 06:15:56;;;;;;;8.82;1.83;;;11.60;99.90;;;;;;6180469;23;20021;-82
2022/11/09 06:18:23;;;;;;;10.13;2.35;;;11.60;99.90;;;;;;6180883;23;20077;-82
2022/11/09 06:20:56;;;;;;;8.77;2.10;;;11.60;99.90;;;;;;6180174;23;20450;-81
2022/11/09 06:23:25;;;;;;;8.70;2.03;;;11.60;99.90;;;;;;6181312;23;20021;-81
2022/11/09 06:26:07;;;;;;;7.25;1.88;;;11.50;99.90;;;;;;6181132;23;20240;-81
2022/11/09 06:28:33;;;;;;;12.55;3.35;;;11.50;99.90;;;;;;6180559;23;20017;-82
2022/11/09 06:31:00;;;;;;;12.52;3.08;;;11.50;99.90;;;;;;6184568;23;20023;-82
2022/11/09 06:33:28;;;;;;;9.70;3.00;;;11.50;99.90;;;;;;6183702;23;20005;-83
2022/11/09 06:35:56;;;;;;;9.48;2.20;;;11.50;99.90;;;;;;6183947;23;20030;-83
2022/11/09 06:38:21;;;;;;;9.85;2.47;;;11.40;99.90;;;;;;6180196;23;20028;-83
2022/11/09 06:40:51;;;;;;;8.07;2.00;;;11.40;99.90;;;;;;6181606;23;20048;-83
2022/11/09 06:43:17;;;;;;;8.73;2.97;;;11.40;99.90;;;;;;6183200;23;20013;-82
2022/11/09 06:45:43;;;;;;;12.05;3.05;;;11.40;99.90;;;;;;6179491;23;20029;-82
2022/11/09 06:48:09;;;;;;;12.60;2.15;;;11.40;99.90;;;;;;6181356;23;20350;-82
2022/11/09 06:50:35;;;;;;;10.45;2.13;;;11.40;99.90;;;;;;6180989;23;20052;-83
2022/11/09 06:53:06;;;;;;;9.80;1.95;;;11.40;99.90;;;;;;6178531;23;20434;-82
2022/11/09 06:55:33;;;;;;;7.50;2.47;;;11.40;99.90;;;;;;6182246;23;20009;-83
2022/11/09 06:57:59;;;;;;;7.10;2.60;;;11.40;99.90;;;;;;6182567;23;20378;-82
2022/11/09 07:00:26;;;;;;;9.32;1.67;;;11.40;99.90;;;;;;6180874;23;20040;-83
2022/11/09 07:02:52;;;;;;;12.55;2.25;;;11.40;99.90;;;;;;6180571;23;20024;-83
2022/11/09 07:05:18;;;;;;;12.77;2.35;;;11.50;99.90;;;;;;6181164;23;20454;-82
2022/11/09 07:07:44;;;;;;;8.00;1.67;;;11.50;99.90;;;;;;6182515;23;20043;-83
2022/11/09 07:10:10;;;;;;;8.63;1.88;;;11.50;99.90;;;;;;6183079;23;20021;-83
2022/11/09 07:12:35;;;;;;;12.25;2.20;;;11.50;99.90;;;;;;6155278;23;20013;-84
2022/11/09 07:15:02;;;;;;;7.43;1.60;;;11.50;99.90;;;;;;6181039;23;20044;-83
2022/11/09 07:17:33;;;;;;;5.55;1.60;;;11.50;99.90;;;;;;6179819;23;20073;-82
2022/11/09 07:19:58;;;;;;;10.65;1.70;;;11.50;99.90;;;;;;6180886;23;20020;-83
2022/11/09 07:22:26;;;;;;;9.23;1.50;;;11.40;99.90;;;;;;6180293;23;20020;-83
2022/11/09 07:24:52;;;;;;;9.43;2.10;;;11.40;99.90;;;;;;6181594;23;20025;-82
2022/11/09 07:27:18;;;;;;;11.57;1.67;;;11.40;99.90;;;;;;6181627;23;20059;-82
2022/11/09 07:29:43;;;;;;;9.60;1.77;;;11.40;99.90;;;;;;6153690;23;20023;-82
2022/11/09 07:32:09;;;;;;;12.20;2.20;;;11.40;99.90;;;;;;6177459;23;20024;-82
2022/11/09 07:34:35;;;;;;;9.27;1.75;;;11.40;99.90;;;;;;6204630;23;20032;-83
2022/11/09 07:37:00;;;;;;;8.15;2.40;;;11.40;99.90;;;;;;6176301;23;20009;-83
2022/11/09 07:39:26;;;;;;;14.00;1.80;;;11.40;99.90;;;;;;6151813;23;20013;-83
2022/11/09 07:41:52;;;;;;;9.77;1.85;;;11.60;99.90;;;;;;6175783;23;20025;-83
2022/11/09 07:44:17;;;;;;;11.88;1.65;;;11.40;99.90;;;;;;6178116;23;20009;-83
2022/11/09 07:46:47;;;;;;;8.00;1.40;;;11.40;99.90;;;;;;6175449;23;20017;-83
2022/11/09 07:49:14;;;;;;;17.17;2.95;;;11.40;99.90;;;;;;6179111;23;20009;-83
2022/11/09 07:51:41;;;;;;;11.05;1.58;;;11.40;99.90;;;;;;6177222;23;20315;-83
2022/11/09 07:54:08;;;;;;;13.15;1.88;;;11.40;99.90;;;;;;6174901;23;20013;-84
2022/11/09 07:56:34;;;;;;;11.30;1.95;;;11.40;99.90;;;;;;6179237;23;20047;-83
2022/11/09 07:59:00;;;;;;;7.30;1.58;;;11.50;99.90;;;;;;6152857;23;20088;-83
2022/11/09 08:01:26;;;;;;;8.38;1.40;;;11.50;99.90;;;;;;6177420;23;20024;-84
2022/11/09 08:03:54;;;;;;;10.90;1.73;;;11.60;99.90;;;;;;6180581;23;20035;-84
2022/11/09 08:06:21;;;;;;;11.93;1.90;;;11.60;99.90;;;;;;6180614;23;20020;-84
2022/11/09 08:08:48;;;;;;;11.10;1.70;;;11.60;99.90;;;;;;6179134;23;20017;-83
2022/11/09 08:11:14;;;;;;;8.25;1.70;;;11.60;99.90;;;;;;6177424;23;20077;-84
2022/11/09 08:13:40;;;;;;;10.77;2.15;;;11.60;99.90;;;;;;6179136;23;20025;-83
2022/11/09 08:16:05;;;;;;;11.40;2.10;;;11.60;99.90;;;;;;6178602;23;20437;-83
2022/11/09 08:18:31;;;;;;;10.38;1.75;;;11.60;99.90;;;;;;6179562;23;20012;-82
2022/11/09 08:21:01;;;;;;;12.82;2.13;;;11.70;99.90;;;;;;6176975;23;20358;-83
2022/11/09 08:23:27;;;;;;;10.55;2.25;;;11.60;99.90;;;;;;6180939;23;20017;-83
2022/11/09 08:25:52;;;;;;;14.02;2.30;;;11.70;99.90;;;;;;6181982;23;20028;-83
2022/11/09 08:28:18;;;;;;;10.23;2.47;;;11.70;99.90;;;;;;6180868;23;20104;-82
2022/11/09 08:30:44;;;;;;;16.17;1.90;;;11.70;99.90;;;;;;6182309;23;20020;-83
2022/11/09 08:33:10;;;;;;;11.93;2.00;;;11.70;99.90;;;;;;6180258;23;20024;-83
2022/11/09 08:35:36;;;;;;;12.80;2.25;;;11.90;99.90;;;;;;6156150;23;20016;-83
2022/11/09 08:38:04;;;;;;;10.52;1.95;;;11.70;99.90;;;;;;6180788;23;20017;-83
2022/11/09 08:40:31;;;;;;;10.60;2.22;;;11.80;99.90;;;;;;6200542;23;20024;-83
2022/11/09 08:43:01;;;;;;;11.05;2.17;;;11.80;99.90;;;;;;6185944;23;20040;-83
2022/11/09 08:45:27;;;;;;;11.52;1.75;;;11.80;99.90;;;;;;6185675;23;20012;-83
2022/11/09 08:47:58;;;;;;;13.05;2.50;;;11.80;99.90;;;;;;6185302;23;20148;-83
2022/11/09 08:50:23;;;;;;;9.82;2.83;;;11.80;99.90;;;;;;6212860;23;20040;-83
2022/11/09 08:52:49;;;;;;;17.95;2.65;;;11.80;99.90;;;;;;6185306;23;20331;-83
2022/11/09 08:55:15;;;;;;;11.98;2.90;;;11.80;99.90;;;;;;6185759;23;20031;-83
2022/11/09 08:57:40;;;;;;;12.60;2.22;;;11.80;99.90;;;;;;6213119;23;20009;-83
2022/11/09 09:00:06;;;;;;;8.77;1.90;;;11.90;99.90;;;;;;6185510;23;20019;-82
2022/11/09 09:02:32;;;;;;;18.88;2.95;;;11.90;99.90;;;;;;6211627;23;20040;-83
2022/11/09 09:04:58;;;;;;;14.90;2.10;;;12.00;99.90;;;;;;6212163;23;20638;-83
2022/11/09 09:07:23;;;;;;;11.55;2.28;;;12.00;99.90;;;;;;6185581;23;20017;-83
2022/11/09 09:09:49;;;;;;;12.30;2.30;;;12.10;99.90;;;;;;6185815;23;20019;-83
2022/11/09 09:12:14;;;;;;;12.07;2.20;;;12.10;99.90;;;;;;6185872;23;20067;-83
2022/11/09 09:14:40;;;;;;;11.93;2.92;;;12.10;99.90;;;;;;6160679;23;20326;-83
2022/11/09 09:17:06;;;;;;;12.30;2.58;;;12.10;99.90;;;;;;6211690;23;20017;-83
2022/11/09 09:19:31;;;;;;;10.57;2.00;;;12.20;99.90;;;;;;6185397;23;20016;-83
2022/11/09 09:21:58;;;;;;;12.75;2.55;;;12.20;99.90;;;;;;6185295;23;20048;-83
2022/11/09 09:24:23;;;;;;;13.07;2.38;;;12.60;99.90;;;;;;6211708;23;20471;-83
2022/11/09 09:26:49;;;;;;;13.38;2.33;;;12.30;99.90;;;;;;6212106;23;20013;-83
2022/11/09 09:29:15;;;;;;;9.80;2.60;;;12.40;99.90;;;;;;6212009;23;20021;-83
2022/11/09 09:31:40;;;;;;;14.25;2.38;;;12.40;99.90;;;;;;6184601;23;20055;-83
2022/11/09 09:34:06;;;;;;;13.18;2.53;;;12.40;99.90;;;;;;6185233;23;20129;-83
2022/11/09 09:36:34;;;;;;;14.57;3.15;;;12.50;99.90;;;;;;6160286;23;20386;-83
2022/11/09 09:39:00;;;;;;;12.90;2.40;;;12.60;99.90;;;;;;6185562;23;20017;-83
2022/11/09 09:41:53;;;;;;;12.82;2.45;;;12.70;99.90;;;;;;6160413;23;20322;-83
2022/11/09 09:44:31;;;;;;;10.75;2.47;;;12.80;99.90;;;;;;6211704;23;20511;-83
2022/11/09 09:46:56;;;;;;;11.90;2.65;;;13.00;99.90;;;;;;6159914;23;20008;-83
2022/11/09 09:49:29;;;;;;;9.05;2.30;;;13.10;99.90;;;;;;6160451;23;20472;-83
2022/11/09 09:52:32;;;;;;;8.70;2.40;;;13.20;99.90;;;;;;6185084;23;20023;-83
2022/11/09 09:55:15;;;;;;;10.07;2.22;;;13.30;99.90;;;;;;6184953;23;20036;-84
2022/11/09 09:57:45;;;;;;;13.35;2.88;;;13.40;99.90;;;;;;6211921;23;20013;-83
2022/11/09 10:00:19;;;;;;;11.40;2.50;;;13.50;99.90;;;;;;6184746;23;20016;-83
2022/11/09 10:02:45;;;;;;;12.70;2.30;;;13.50;99.90;;;;;;6212098;23;20048;-83
2022/11/09 10:05:14;;;;;;;10.93;2.88;;;13.60;99.90;;;;;;6211576;23;20020;-83
2022/11/09 10:08:08;;;;;;;10.05;2.75;;;13.70;99.90;;;;;;6185007;23;20016;-83
2022/11/09 10:10:59;;;;;;;10.93;2.88;;;13.80;99.90;;;;;;6185374;23;20020;-83
2022/11/09 10:13:43;;;;;;;12.60;2.80;;;13.90;99.90;;;;;;6184665;23;20047;-83
2022/11/09 10:16:45;;;;;;;9.70;2.43;;;13.80;99.90;;;;;;6159402;23;20031;-83
2022/11/09 10:19:32;;;;;;;10.63;2.70;;;13.80;99.90;;;;;;6185088;23;20020;-83
2022/11/09 10:22:21;;;;;;;9.90;2.95;;;13.90;99.90;;;;;;6185671;23;20044;-84
2022/11/09 10:24:58;;;;;;;12.73;3.08;;;14.00;99.90;;;;;;6185029;23;20070;-84
2022/11/09 10:27:35;;;;;;;10.13;2.38;;;14.00;99.90;;;;;;6184903;23;20482;-83
2022/11/09 10:30:10;;;;;;;9.75;3.15;;;14.00;99.90;;;;;;6160125;23;20096;-83
2022/11/09 10:32:36;;;;;;;11.48;2.72;;;13.90;99.90;;;;;;6184740;23;20009;-83
2022/11/09 10:35:21;;;;;;;9.30;3.25;;;13.90;99.90;;;;;;6184363;23;20070;-83
2022/11/09 10:37:50;;;;;;;11.77;3.10;;;13.90;99.90;;;;;;6159775;23;20009;-83
2022/11/09 10:40:30;;;;;;;10.45;2.88;;;13.90;99.90;;;;;;6159595;23;20376;-83
2022/11/09 10:42:58;;;;;;;11.45;2.72;;;14.00;99.90;;;;;;6211377;23;20013;-83
2022/11/09 10:45:36;;;;;;;10.73;2.70;;;14.10;99.90;;;;;;6183996;23;20021;-83
2022/11/09 10:48:03;;;;;;;10.65;2.75;;;14.10;99.90;;;;;;6183857;23;20017;-84
2022/11/09 10:50:53;;;;;;;13.20;2.60;;;14.10;99.90;;;;;;6211271;23;20020;-83
2022/11/09 10:53:24;;;;;;;11.75;3.28;;;14.10;99.90;;;;;;6211313;23;20063;-84
2022/11/09 10:56:11;;;;;;;14.63;3.35;;;14.10;99.90;;;;;;6184332;23;20449;-83
2022/11/09 10:58:51;;;;;;;11.05;3.30;;;14.00;99.90;;;;;;6183965;23;20048;-83
2022/11/09 11:01:31;;;;;;;11.75;2.78;;;14.10;99.90;;;;;;6184353;23;20066;-84
2022/11/09 11:03:56;;;;;;;14.73;2.92;;;14.00;99.90;;;;;;6159513;23;20381;-84
2022/11/09 11:06:22;;;;;;;17.30;3.33;;;14.00;99.90;;;;;;6184821;23;20098;-83
2022/11/09 11:08:50;;;;;;;10.40;2.67;;;13.90;99.90;;;;;;6184181;23;20013;-83
2022/11/09 11:11:27;;;;;;;10.10;2.95;;;14.00;99.90;;;;;;6159706;23;20017;-83
2022/11/09 11:14:13;;;;;;;12.13;2.85;;;14.00;99.90;;;;;;6210552;23;20024;-82
2022/11/09 11:16:40;;;;;;;15.10;3.30;;;14.00;99.90;;;;;;6208611;23;20013;-83
2022/11/09 11:19:25;;;;;;;8.98;2.65;;;14.00;99.90;;;;;;6211304;23;20055;-83
2022/11/09 11:22:09;;;;;;;14.77;3.88;;;14.00;99.90;;;;;;6159211;23;20044;-83
2022/11/09 11:25:16;;;;;;;12.15;3.42;;;14.00;99.90;;;;;;6159031;23;20016;-83
2022/11/09 11:27:54;;;;;;;14.70;3.08;;;14.00;99.90;;;;;;6190175;23;20032;-83
2022/11/09 11:30:27;;;;;;;10.05;2.53;;;14.00;99.90;;;;;;6184887;23;20063;-83
2022/11/09 11:32:56;;;;;;;9.18;2.70;;;14.20;99.90;;;;;;6184360;23;20052;-83
2022/11/09 11:35:35;;;;;;;13.43;3.35;;;14.20;99.90;;;;;;6184641;23;20044;-83
2022/11/09 11:38:07;;;;;;;9.85;3.90;;;14.20;99.90;;;;;;6184664;23;20009;-83
2022/11/09 11:41:00;;;;;;;7.47;2.67;;;14.20;99.90;;;;;;6210639;23;20021;-83
2022/11/09 11:43:44;;;;;;;10.63;2.92;;;14.20;99.90;;;;;;6164946;23;20044;-83
2022/11/09 11:46:24;;;;;;;11.30;2.67;;;14.30;99.90;;;;;;6159614;23;20020;-83
2022/11/09 11:49:22;;;;;;;13.35;2.65;;;14.30;99.90;;;;;;6211418;23;20013;-83
2022/11/09 11:52:21;;;;;;;9.52;2.47;;;14.30;99.90;;;;;;6211518;23;20016;-83
2022/11/09 11:55:02;;;;;;;10.90;2.80;;;14.20;99.90;;;;;;6210832;23;20017;-83
2022/11/09 11:57:36;;;;;;;10.20;3.00;;;14.40;99.90;;;;;;6158996;23;20028;-83
2022/11/09 12:00:17;;;;;;;13.00;2.78;;;14.20;99.90;;;;;;6158972;23;20019;-83
2022/11/09 12:03:01;;;;;;;13.43;2.45;;;14.30;99.90;;;;;;6184273;23;20020;-84
2022/11/09 12:05:49;;;;;;;12.35;2.10;;;14.30;99.90;;;;;;6184449;23;20017;-83
2022/11/09 12:08:24;;;;;;;12.40;2.67;;;14.20;99.90;;;;;;6159106;23;20016;-83
2022/11/09 12:11:02;;;;;;;9.68;2.70;;;14.20;99.90;;;;;;6158946;23;20070;-83
2022/11/09 12:13:51;;;;;;;9.48;2.22;;;14.10;99.90;;;;;;6210680;23;20093;-83
2022/11/09 12:16:17;;;;;;;10.00;2.78;;;14.10;99.90;;;;;;6183625;23;20013;-83
2022/11/09 12:19:28;;;;;;;9.48;2.67;;;14.00;99.90;;;;;;6183933;23;20012;-84
2022/11/09 12:22:25;;;;;;;13.45;2.60;;;13.90;99.90;;;;;;6183760;23;20013;-83
2022/11/09 12:25:00;;;;;;;8.73;2.28;;;13.90;99.90;;;;;;6183492;23;20088;-83
2022/11/09 12:28:03;;;;;;;7.40;2.38;;;13.90;99.90;;;;;;6159283;23;20008;-84
2022/11/09 12:30:52;;;;;;;9.00;2.17;;;13.80;99.90;;;;;;6184392;23;20087;-83
2022/11/09 12:33:37;;;;;;;11.45;2.30;;;13.80;99.90;;;;;;6183673;23;20127;-83
2022/11/09 12:36:19;;;;;;;8.15;2.20;;;13.80;99.90;;;;;;6184991;23;20070;-83
2022/11/09 12:39:04;;;;;;;9.48;2.08;;;13.80;99.90;;;;;;6184081;23;20012;-82
2022/11/09 12:41:36;;;;;;;9.88;2.28;;;13.70;99.90;;;;;;6158588;23;20028;-83
2022/11/09 12:44:24;;;;;;;8.10;2.20;;;13.70;99.90;;;;;;6211034;23;20024;-83
2022/11/09 12:47:01;;;;;;;10.05;2.50;;;13.70;99.90;;;;;;6210974;23;20017;-83
2022/11/09 12:49:37;;;;;;;10.95;2.10;;;13.80;99.90;;;;;;6184187;23;20024;-83
2022/11/09 12:52:10;;;;;;;9.40;2.25;;;13.80;99.90;;;;;;6183626;23;20013;-83
2022/11/09 12:54:44;;;;;;;12.47;2.53;;;13.80;99.90;;;;;;6183093;23;20044;-83
2022/11/09 12:57:14;;;;;;;9.68;2.40;;;13.80;99.90;;;;;;6211102;23;20019;-83